sensor_id;sensor_type;location;lat;lon;timestamp;P1;durP1;ratioP1;P2;durP2;ratioP2
2896;SDS011;1458;49.728;9.228;2022-12-11T00:00:08;1.40;;;1.40;;
2896;SDS011;1458;49.728;9.228;2022-12-11T00:02:36;1.33;;;1.33;;
2896;SDS011;1458;49.728;9.228;2022-12-11T00:05:06;1.40;;;1.40;;
2896;SDS011;1458;49.728;9.228;2022-12-11T00:07:34;1.40;;;1.40;;
2896;SDS011;1458;49.728;9.228;2022-12-11T00:10:01;1.40;;;1.40;;
2896;SDS011;1458;49.728;9.228;2022-12-11T00:12:31;1.40;;;1.40;;
2896;SDS011;1458;49.728;9.228;2022-12-11T00:14:58;1.37;;;1.37;;
2896;SDS011;1458;49.728;9.228;2022-12-11T00:17:25;1.40;;;1.40;;
2896;SDS011;1458;49.728;9.228;2022-12-11T00:19:53;1.30;;;1.30;;
2896;SDS011;1458;49.728;9.228;2022-12-11T00:22:21;1.23;;;1.23;;
2896;SDS011;1458;49.728;9.228;2022-12-11T00:24:50;1.20;;;1.20;;
2896;SDS011;1458;49.728;9.228;2022-12-11T00:27:17;1.10;;;1.10;;
2896;SDS011;1458;49.728;9.228;2022-12-11T00:29:45;1.20;;;1.20;;
2896;SDS011;1458;49.728;9.228;2022-12-11T00:32:13;1.10;;;1.10;;
2896;SDS011;1458;49.728;9.228;2022-12-11T00:34:40;1.10;;;1.10;;
2896;SDS011;1458;49.728;9.228;2022-12-11T00:37:07;1.20;;;1.20;;
2896;SDS011;1458;49.728;9.228;2022-12-11T00:39:36;1.40;;;1.40;;
2896;SDS011;1458;49.728;9.228;2022-12-11T00:42:05;1.20;;;1.20;;
2896;SDS011;1458;49.728;9.228;2022-12-11T00:44:32;1.30;;;1.30;;
2896;SDS011;1458;49.728;9.228;2022-12-11T00:47:00;1.30;;;1.30;;
2896;SDS011;1458;49.728;9.228;2022-12-11T00:49:28;1.30;;;1.30;;
2896;SDS011;1458;49.728;9.228;2022-12-11T00:51:55;1.20;;;1.20;;
2896;SDS011;1458;49.728;9.228;2022-12-11T00:54:22;1.20;;;1.20;;
2896;SDS011;1458;49.728;9.228;2022-12-11T00:56:51;1.30;;;1.30;;
2896;SDS011;1458;49.728;9.228;2022-12-11T00:59:20;1.50;;;1.50;;
2896;SDS011;1458;49.728;9.228;2022-12-11T01:01:48;1.60;;;1.60;;
2896;SDS011;1458;49.728;9.228;2022-12-11T01:04:16;1.60;;;1.60;;
2896;SDS011;1458;49.728;9.228;2022-12-11T01:06:43;1.53;;;1.53;;
2896;SDS011;1458;49.728;9.228;2022-12-11T01:09:10;1.60;;;1.60;;
2896;SDS011;1458;49.728;9.228;2022-12-11T01:11:56;1.60;;;1.60;;
2896;SDS011;1458;49.728;9.228;2022-12-11T01:14:23;1.50;;;1.50;;
2896;SDS011;1458;49.728;9.228;2022-12-11T01:16:52;1.60;;;1.60;;
2896;SDS011;1458;49.728;9.228;2022-12-11T01:19:19;1.57;;;1.57;;
2896;SDS011;1458;49.728;9.228;2022-12-11T01:21:47;1.53;;;1.53;;
2896;SDS011;1458;49.728;9.228;2022-12-11T01:24:14;1.70;;;1.70;;
2896;SDS011;1458;49.728;9.228;2022-12-11T01:26:41;1.73;;;1.73;;
2896;SDS011;1458;49.728;9.228;2022-12-11T01:29:10;2.00;;;2.00;;
2896;SDS011;1458;49.728;9.228;2022-12-11T01:31:37;1.90;;;1.90;;
2896;SDS011;1458;49.728;9.228;2022-12-11T01:34:05;1.90;;;1.90;;
2896;SDS011;1458;49.728;9.228;2022-12-11T01:36:32;1.80;;;1.80;;
2896;SDS011;1458;49.728;9.228;2022-12-11T01:38:59;1.70;;;1.70;;
2896;SDS011;1458;49.728;9.228;2022-12-11T01:41:27;1.70;;;1.70;;
2896;SDS011;1458;49.728;9.228;2022-12-11T01:43:55;1.60;;;1.60;;
2896;SDS011;1458;49.728;9.228;2022-12-11T01:46:30;1.70;;;1.70;;
2896;SDS011;1458;49.728;9.228;2022-12-11T01:49:00;1.50;;;1.50;;
2896;SDS011;1458;49.728;9.228;2022-12-11T01:51:32;1.60;;;1.60;;
2896;SDS011;1458;49.728;9.228;2022-12-11T01:54:08;1.50;;;1.50;;
2896;SDS011;1458;49.728;9.228;2022-12-11T01:56:38;1.60;;;1.60;;
2896;SDS011;1458;49.728;9.228;2022-12-11T01:59:09;1.60;;;1.60;;
2896;SDS011;1458;49.728;9.228;2022-12-11T02:01:40;1.63;;;1.63;;
2896;SDS011;1458;49.728;9.228;2022-12-11T02:04:12;1.73;;;1.73;;
2896;SDS011;1458;49.728;9.228;2022-12-11T02:06:42;1.70;;;1.70;;
2896;SDS011;1458;49.728;9.228;2022-12-11T02:09:12;1.70;;;1.70;;
2896;SDS011;1458;49.728;9.228;2022-12-11T02:11:45;1.80;;;1.80;;
2896;SDS011;1458;49.728;9.228;2022-12-11T02:14:24;1.60;;;1.60;;
2896;SDS011;1458;49.728;9.228;2022-12-11T02:17:01;1.70;;;1.70;;
2896;SDS011;1458;49.728;9.228;2022-12-11T02:19:43;1.80;;;1.80;;
2896;SDS011;1458;49.728;9.228;2022-12-11T02:22:21;2.00;;;2.00;;
2896;SDS011;1458;49.728;9.228;2022-12-11T02:25:08;1.80;;;1.80;;
2896;SDS011;1458;49.728;9.228;2022-12-11T02:27:43;1.90;;;1.90;;
2896;SDS011;1458;49.728;9.228;2022-12-11T02:30:15;1.80;;;1.80;;
2896;SDS011;1458;49.728;9.228;2022-12-11T02:32:44;1.80;;;1.80;;
2896;SDS011;1458;49.728;9.228;2022-12-11T02:35:16;1.80;;;1.80;;
2896;SDS011;1458;49.728;9.228;2022-12-11T02:37:48;1.83;;;1.83;;
2896;SDS011;1458;49.728;9.228;2022-12-11T02:40:23;1.90;;;1.90;;
2896;SDS011;1458;49.728;9.228;2022-12-11T02:42:55;1.93;;;1.93;;
2896;SDS011;1458;49.728;9.228;2022-12-11T02:45:28;1.80;;;1.80;;
2896;SDS011;1458;49.728;9.228;2022-12-11T02:47:57;1.80;;;1.80;;
2896;SDS011;1458;49.728;9.228;2022-12-11T02:50:28;1.90;;;1.90;;
2896;SDS011;1458;49.728;9.228;2022-12-11T02:52:56;1.90;;;1.90;;
2896;SDS011;1458;49.728;9.228;2022-12-11T02:55:26;1.90;;;1.90;;
2896;SDS011;1458;49.728;9.228;2022-12-11T02:57:59;1.90;;;1.90;;
2896;SDS011;1458;49.728;9.228;2022-12-11T03:00:33;2.00;;;2.00;;
2896;SDS011;1458;49.728;9.228;2022-12-11T03:03:00;2.17;;;2.17;;
2896;SDS011;1458;49.728;9.228;2022-12-11T03:05:28;2.10;;;2.10;;
2896;SDS011;1458;49.728;9.228;2022-12-11T03:07:56;2.10;;;2.10;;
2896;SDS011;1458;49.728;9.228;2022-12-11T03:10:23;2.03;;;2.03;;
2896;SDS011;1458;49.728;9.228;2022-12-11T03:12:51;2.10;;;2.10;;
2896;SDS011;1458;49.728;9.228;2022-12-11T03:15:22;2.30;;;2.30;;
2896;SDS011;1458;49.728;9.228;2022-12-11T03:17:59;2.30;;;2.30;;
2896;SDS011;1458;49.728;9.228;2022-12-11T03:20:36;2.30;;;2.30;;
2896;SDS011;1458;49.728;9.228;2022-12-11T03:23:11;2.30;;;2.30;;
2896;SDS011;1458;49.728;9.228;2022-12-11T03:25:49;2.30;;;2.30;;
2896;SDS011;1458;49.728;9.228;2022-12-11T03:28:21;2.30;;;2.30;;
2896;SDS011;1458;49.728;9.228;2022-12-11T03:30:55;2.20;;;2.20;;
2896;SDS011;1458;49.728;9.228;2022-12-11T03:33:26;2.20;;;2.20;;
2896;SDS011;1458;49.728;9.228;2022-12-11T03:36:00;2.23;;;2.23;;
2896;SDS011;1458;49.728;9.228;2022-12-11T03:38:34;2.30;;;2.30;;
2896;SDS011;1458;49.728;9.228;2022-12-11T03:41:06;2.10;;;2.10;;
2896;SDS011;1458;49.728;9.228;2022-12-11T03:43:36;2.00;;;2.00;;
2896;SDS011;1458;49.728;9.228;2022-12-11T03:46:06;1.90;;;1.90;;
2896;SDS011;1458;49.728;9.228;2022-12-11T03:48:36;1.90;;;1.90;;
2896;SDS011;1458;49.728;9.228;2022-12-11T03:51:06;1.80;;;1.80;;
2896;SDS011;1458;49.728;9.228;2022-12-11T03:53:35;1.93;;;1.93;;
2896;SDS011;1458;49.728;9.228;2022-12-11T03:56:04;2.00;;;2.00;;
2896;SDS011;1458;49.728;9.228;2022-12-11T03:58:34;1.80;;;1.80;;
2896;SDS011;1458;49.728;9.228;2022-12-11T04:01:01;2.00;;;2.00;;
2896;SDS011;1458;49.728;9.228;2022-12-11T04:03:29;1.80;;;1.80;;
2896;SDS011;1458;49.728;9.228;2022-12-11T04:05:57;1.90;;;1.90;;
2896;SDS011;1458;49.728;9.228;2022-12-11T04:08:25;2.10;;;2.10;;
2896;SDS011;1458;49.728;9.228;2022-12-11T04:10:52;2.00;;;2.00;;
2896;SDS011;1458;49.728;9.228;2022-12-11T04:13:33;2.20;;;2.20;;
2896;SDS011;1458;49.728;9.228;2022-12-11T04:16:00;2.10;;;2.10;;
2896;SDS011;1458;49.728;9.228;2022-12-11T04:18:27;2.00;;;2.00;;
2896;SDS011;1458;49.728;9.228;2022-12-11T04:21:13;2.10;;;2.10;;
2896;SDS011;1458;49.728;9.228;2022-12-11T04:23:58;2.10;;;2.10;;
2896;SDS011;1458;49.728;9.228;2022-12-11T04:26:40;2.10;;;2.10;;
2896;SDS011;1458;49.728;9.228;2022-12-11T04:29:08;2.10;;;2.10;;
2896;SDS011;1458;49.728;9.228;2022-12-11T04:31:35;2.10;;;2.10;;
2896;SDS011;1458;49.728;9.228;2022-12-11T04:34:02;2.00;;;2.00;;
2896;SDS011;1458;49.728;9.228;2022-12-11T04:36:31;1.63;;;1.63;;
2896;SDS011;1458;49.728;9.228;2022-12-11T04:38:58;1.50;;;1.50;;
2896;SDS011;1458;49.728;9.228;2022-12-11T04:41:27;1.30;;;1.30;;
2896;SDS011;1458;49.728;9.228;2022-12-11T04:43:54;1.40;;;1.40;;
2896;SDS011;1458;49.728;9.228;2022-12-11T04:46:22;1.30;;;1.30;;
2896;SDS011;1458;49.728;9.228;2022-12-11T04:48:50;1.10;;;1.10;;
2896;SDS011;1458;49.728;9.228;2022-12-11T04:51:18;1.20;;;1.20;;
2896;SDS011;1458;49.728;9.228;2022-12-11T04:53:47;1.20;;;1.20;;
2896;SDS011;1458;49.728;9.228;2022-12-11T04:56:15;1.20;;;1.20;;
2896;SDS011;1458;49.728;9.228;2022-12-11T04:58:43;1.20;;;1.20;;
2896;SDS011;1458;49.728;9.228;2022-12-11T05:01:12;1.30;;;1.30;;
2896;SDS011;1458;49.728;9.228;2022-12-11T05:03:41;1.30;;;1.30;;
2896;SDS011;1458;49.728;9.228;2022-12-11T05:06:09;1.10;;;1.10;;
2896;SDS011;1458;49.728;9.228;2022-12-11T05:08:38;1.10;;;1.10;;
2896;SDS011;1458;49.728;9.228;2022-12-11T05:11:09;1.20;;;1.20;;
2896;SDS011;1458;49.728;9.228;2022-12-11T05:13:39;1.20;;;1.20;;
2896;SDS011;1458;49.728;9.228;2022-12-11T05:16:07;1.10;;;1.10;;
2896;SDS011;1458;49.728;9.228;2022-12-11T05:18:37;1.00;;;1.00;;
2896;SDS011;1458;49.728;9.228;2022-12-11T05:21:05;1.00;;;1.00;;
2896;SDS011;1458;49.728;9.228;2022-12-11T05:23:35;1.00;;;1.00;;
2896;SDS011;1458;49.728;9.228;2022-12-11T05:26:04;1.00;;;1.00;;
2896;SDS011;1458;49.728;9.228;2022-12-11T05:28:35;1.00;;;1.00;;
2896;SDS011;1458;49.728;9.228;2022-12-11T05:31:04;1.10;;;1.10;;
2896;SDS011;1458;49.728;9.228;2022-12-11T05:33:34;0.90;;;0.90;;
2896;SDS011;1458;49.728;9.228;2022-12-11T05:36:01;1.00;;;1.00;;
2896;SDS011;1458;49.728;9.228;2022-12-11T05:38:29;1.00;;;1.00;;
2896;SDS011;1458;49.728;9.228;2022-12-11T05:40:57;1.00;;;1.00;;
2896;SDS011;1458;49.728;9.228;2022-12-11T05:43:27;1.00;;;1.00;;
2896;SDS011;1458;49.728;9.228;2022-12-11T05:46:05;0.90;;;0.90;;
2896;SDS011;1458;49.728;9.228;2022-12-11T05:48:34;0.90;;;0.90;;
2896;SDS011;1458;49.728;9.228;2022-12-11T05:51:02;0.80;;;0.80;;
2896;SDS011;1458;49.728;9.228;2022-12-11T05:53:30;0.90;;;0.90;;
2896;SDS011;1458;49.728;9.228;2022-12-11T05:56:02;0.80;;;0.80;;
2896;SDS011;1458;49.728;9.228;2022-12-11T05:58:31;0.83;;;0.83;;
2896;SDS011;1458;49.728;9.228;2022-12-11T06:01:00;0.90;;;0.90;;
2896;SDS011;1458;49.728;9.228;2022-12-11T06:03:33;0.90;;;0.90;;
2896;SDS011;1458;49.728;9.228;2022-12-11T06:06:00;0.80;;;0.80;;
2896;SDS011;1458;49.728;9.228;2022-12-11T06:08:28;0.80;;;0.80;;
2896;SDS011;1458;49.728;9.228;2022-12-11T06:10:55;0.80;;;0.80;;
2896;SDS011;1458;49.728;9.228;2022-12-11T06:13:23;0.80;;;0.80;;
2896;SDS011;1458;49.728;9.228;2022-12-11T06:15:51;0.70;;;0.70;;
2896;SDS011;1458;49.728;9.228;2022-12-11T06:18:18;0.70;;;0.70;;
2896;SDS011;1458;49.728;9.228;2022-12-11T06:20:47;0.80;;;0.80;;
2896;SDS011;1458;49.728;9.228;2022-12-11T06:23:14;0.73;;;0.73;;
2896;SDS011;1458;49.728;9.228;2022-12-11T06:25:42;0.80;;;0.80;;
2896;SDS011;1458;49.728;9.228;2022-12-11T06:28:09;0.70;;;0.70;;
2896;SDS011;1458;49.728;9.228;2022-12-11T06:30:37;0.80;;;0.80;;
2896;SDS011;1458;49.728;9.228;2022-12-11T06:33:04;0.77;;;0.77;;
2896;SDS011;1458;49.728;9.228;2022-12-11T06:35:32;0.80;;;0.80;;
2896;SDS011;1458;49.728;9.228;2022-12-11T06:38:01;0.80;;;0.80;;
2896;SDS011;1458;49.728;9.228;2022-12-11T06:40:28;0.80;;;0.80;;
2896;SDS011;1458;49.728;9.228;2022-12-11T06:42:56;0.80;;;0.80;;
2896;SDS011;1458;49.728;9.228;2022-12-11T06:45:23;0.80;;;0.80;;
2896;SDS011;1458;49.728;9.228;2022-12-11T06:47:50;0.80;;;0.80;;
2896;SDS011;1458;49.728;9.228;2022-12-11T06:50:17;0.80;;;0.80;;
2896;SDS011;1458;49.728;9.228;2022-12-11T06:52:45;0.80;;;0.80;;
2896;SDS011;1458;49.728;9.228;2022-12-11T06:55:14;0.77;;;0.77;;
2896;SDS011;1458;49.728;9.228;2022-12-11T06:57:41;0.80;;;0.80;;
2896;SDS011;1458;49.728;9.228;2022-12-11T07:00:09;0.80;;;0.80;;
2896;SDS011;1458;49.728;9.228;2022-12-11T07:02:37;0.80;;;0.80;;
2896;SDS011;1458;49.728;9.228;2022-12-11T07:05:05;0.90;;;0.90;;
2896;SDS011;1458;49.728;9.228;2022-12-11T07:07:33;1.00;;;1.00;;
2896;SDS011;1458;49.728;9.228;2022-12-11T07:10:00;0.90;;;0.90;;
2896;SDS011;1458;49.728;9.228;2022-12-11T07:12:29;0.80;;;0.80;;
2896;SDS011;1458;49.728;9.228;2022-12-11T07:14:56;0.90;;;0.90;;
2896;SDS011;1458;49.728;9.228;2022-12-11T07:17:23;0.90;;;0.90;;
2896;SDS011;1458;49.728;9.228;2022-12-11T07:19:51;0.80;;;0.80;;
2896;SDS011;1458;49.728;9.228;2022-12-11T07:22:18;0.80;;;0.80;;
2896;SDS011;1458;49.728;9.228;2022-12-11T07:24:45;0.80;;;0.80;;
2896;SDS011;1458;49.728;9.228;2022-12-11T07:27:13;0.80;;;0.80;;
2896;SDS011;1458;49.728;9.228;2022-12-11T07:29:41;0.80;;;0.80;;
2896;SDS011;1458;49.728;9.228;2022-12-11T07:32:09;0.83;;;0.83;;
2896;SDS011;1458;49.728;9.228;2022-12-11T07:34:36;0.80;;;0.80;;
2896;SDS011;1458;49.728;9.228;2022-12-11T07:37:04;0.70;;;0.70;;
2896;SDS011;1458;49.728;9.228;2022-12-11T07:39:31;0.77;;;0.77;;
2896;SDS011;1458;49.728;9.228;2022-12-11T07:41:59;0.80;;;0.80;;
2896;SDS011;1458;49.728;9.228;2022-12-11T07:44:26;0.80;;;0.80;;
2896;SDS011;1458;49.728;9.228;2022-12-11T07:46:55;0.80;;;0.80;;
2896;SDS011;1458;49.728;9.228;2022-12-11T07:49:22;0.80;;;0.80;;
2896;SDS011;1458;49.728;9.228;2022-12-11T07:51:50;0.90;;;0.90;;
2896;SDS011;1458;49.728;9.228;2022-12-11T07:54:17;0.70;;;0.70;;
2896;SDS011;1458;49.728;9.228;2022-12-11T07:56:45;0.80;;;0.80;;
2896;SDS011;1458;49.728;9.228;2022-12-11T07:59:13;0.80;;;0.80;;
2896;SDS011;1458;49.728;9.228;2022-12-11T08:01:42;0.80;;;0.80;;
2896;SDS011;1458;49.728;9.228;2022-12-11T08:04:10;0.80;;;0.80;;
2896;SDS011;1458;49.728;9.228;2022-12-11T08:06:40;0.80;;;0.80;;
2896;SDS011;1458;49.728;9.228;2022-12-11T08:09:09;0.80;;;0.80;;
2896;SDS011;1458;49.728;9.228;2022-12-11T08:11:38;0.80;;;0.80;;
2896;SDS011;1458;49.728;9.228;2022-12-11T08:14:06;0.80;;;0.80;;
2896;SDS011;1458;49.728;9.228;2022-12-11T08:16:33;0.80;;;0.80;;
2896;SDS011;1458;49.728;9.228;2022-12-11T08:19:03;0.80;;;0.80;;
2896;SDS011;1458;49.728;9.228;2022-12-11T08:21:31;0.83;;;0.83;;
2896;SDS011;1458;49.728;9.228;2022-12-11T08:23:59;0.77;;;0.77;;
2896;SDS011;1458;49.728;9.228;2022-12-11T08:26:27;0.80;;;0.80;;
2896;SDS011;1458;49.728;9.228;2022-12-11T08:28:57;0.80;;;0.80;;
2896;SDS011;1458;49.728;9.228;2022-12-11T08:31:25;0.80;;;0.80;;
2896;SDS011;1458;49.728;9.228;2022-12-11T08:33:55;0.80;;;0.80;;
2896;SDS011;1458;49.728;9.228;2022-12-11T08:36:23;0.90;;;0.90;;
2896;SDS011;1458;49.728;9.228;2022-12-11T08:38:52;0.83;;;0.83;;
2896;SDS011;1458;49.728;9.228;2022-12-11T08:41:21;0.90;;;0.90;;
2896;SDS011;1458;49.728;9.228;2022-12-11T08:43:51;0.90;;;0.90;;
2896;SDS011;1458;49.728;9.228;2022-12-11T08:46:20;0.90;;;0.90;;
2896;SDS011;1458;49.728;9.228;2022-12-11T08:48:50;0.90;;;0.90;;
2896;SDS011;1458;49.728;9.228;2022-12-11T08:51:19;1.00;;;1.00;;
2896;SDS011;1458;49.728;9.228;2022-12-11T08:53:48;0.83;;;0.83;;
2896;SDS011;1458;49.728;9.228;2022-12-11T08:56:18;0.90;;;0.90;;
2896;SDS011;1458;49.728;9.228;2022-12-11T08:58:48;0.90;;;0.90;;
2896;SDS011;1458;49.728;9.228;2022-12-11T09:01:16;1.03;;;1.03;;
2896;SDS011;1458;49.728;9.228;2022-12-11T09:03:46;0.93;;;0.93;;
2896;SDS011;1458;49.728;9.228;2022-12-11T09:06:15;0.90;;;0.90;;
2896;SDS011;1458;49.728;9.228;2022-12-11T09:08:45;0.93;;;0.93;;
2896;SDS011;1458;49.728;9.228;2022-12-11T09:11:15;1.00;;;1.00;;
2896;SDS011;1458;49.728;9.228;2022-12-11T09:13:47;1.10;;;1.10;;
2896;SDS011;1458;49.728;9.228;2022-12-11T09:16:16;1.07;;;1.07;;
2896;SDS011;1458;49.728;9.228;2022-12-11T09:18:46;1.10;;;1.10;;
2896;SDS011;1458;49.728;9.228;2022-12-11T09:21:17;1.10;;;1.10;;
2896;SDS011;1458;49.728;9.228;2022-12-11T09:23:46;1.10;;;1.10;;
2896;SDS011;1458;49.728;9.228;2022-12-11T09:26:14;1.00;;;1.00;;
2896;SDS011;1458;49.728;9.228;2022-12-11T09:28:44;1.00;;;1.00;;
2896;SDS011;1458;49.728;9.228;2022-12-11T09:31:12;1.10;;;1.10;;
2896;SDS011;1458;49.728;9.228;2022-12-11T09:33:41;1.07;;;1.07;;
2896;SDS011;1458;49.728;9.228;2022-12-11T09:36:09;1.00;;;1.00;;
2896;SDS011;1458;49.728;9.228;2022-12-11T09:38:37;1.00;;;1.00;;
2896;SDS011;1458;49.728;9.228;2022-12-11T09:41:22;1.00;;;1.00;;
2896;SDS011;1458;49.728;9.228;2022-12-11T09:44:05;1.20;;;1.20;;
2896;SDS011;1458;49.728;9.228;2022-12-11T09:46:43;1.10;;;1.10;;
2896;SDS011;1458;49.728;9.228;2022-12-11T09:49:16;1.23;;;1.23;;
2896;SDS011;1458;49.728;9.228;2022-12-11T09:51:58;1.10;;;1.10;;
2896;SDS011;1458;49.728;9.228;2022-12-11T09:54:34;1.10;;;1.10;;
2896;SDS011;1458;49.728;9.228;2022-12-11T09:57:06;1.00;;;1.00;;
2896;SDS011;1458;49.728;9.228;2022-12-11T09:59:45;1.10;;;1.10;;
2896;SDS011;1458;49.728;9.228;2022-12-11T10:02:32;1.00;;;1.00;;
2896;SDS011;1458;49.728;9.228;2022-12-11T10:05:12;1.00;;;1.00;;
2896;SDS011;1458;49.728;9.228;2022-12-11T10:07:47;1.00;;;1.00;;
2896;SDS011;1458;49.728;9.228;2022-12-11T10:10:20;1.00;;;1.00;;
2896;SDS011;1458;49.728;9.228;2022-12-11T10:12:59;0.90;;;0.90;;
2896;SDS011;1458;49.728;9.228;2022-12-11T10:15:34;1.00;;;1.00;;
2896;SDS011;1458;49.728;9.228;2022-12-11T10:18:10;0.90;;;0.90;;
2896;SDS011;1458;49.728;9.228;2022-12-11T10:20:41;1.10;;;1.10;;
2896;SDS011;1458;49.728;9.228;2022-12-11T10:23:12;1.10;;;1.10;;
2896;SDS011;1458;49.728;9.228;2022-12-11T10:25:47;1.10;;;1.10;;
2896;SDS011;1458;49.728;9.228;2022-12-11T10:28:20;1.00;;;1.00;;
2896;SDS011;1458;49.728;9.228;2022-12-11T10:30:48;1.10;;;1.10;;
2896;SDS011;1458;49.728;9.228;2022-12-11T10:33:25;1.10;;;1.10;;
2896;SDS011;1458;49.728;9.228;2022-12-11T10:36:00;1.10;;;1.10;;
2896;SDS011;1458;49.728;9.228;2022-12-11T10:38:28;1.00;;;1.00;;
2896;SDS011;1458;49.728;9.228;2022-12-11T10:40:59;1.20;;;1.20;;
2896;SDS011;1458;49.728;9.228;2022-12-11T10:43:35;1.10;;;1.10;;
2896;SDS011;1458;49.728;9.228;2022-12-11T10:46:06;1.20;;;1.20;;
2896;SDS011;1458;49.728;9.228;2022-12-11T10:48:45;1.20;;;1.20;;
2896;SDS011;1458;49.728;9.228;2022-12-11T10:51:14;1.20;;;1.20;;
2896;SDS011;1458;49.728;9.228;2022-12-11T10:53:42;1.20;;;1.20;;
2896;SDS011;1458;49.728;9.228;2022-12-11T10:56:23;1.20;;;1.20;;
2896;SDS011;1458;49.728;9.228;2022-12-11T10:58:53;1.20;;;1.20;;
2896;SDS011;1458;49.728;9.228;2022-12-11T11:01:22;1.20;;;1.20;;
2896;SDS011;1458;49.728;9.228;2022-12-11T11:03:53;1.20;;;1.20;;
2896;SDS011;1458;49.728;9.228;2022-12-11T11:06:25;1.20;;;1.20;;
2896;SDS011;1458;49.728;9.228;2022-12-11T11:08:53;1.10;;;1.10;;
2896;SDS011;1458;49.728;9.228;2022-12-11T11:11:24;1.00;;;1.00;;
2896;SDS011;1458;49.728;9.228;2022-12-11T11:14:06;1.00;;;1.00;;
2896;SDS011;1458;49.728;9.228;2022-12-11T11:16:40;1.13;;;1.13;;
2896;SDS011;1458;49.728;9.228;2022-12-11T11:19:16;1.10;;;1.10;;
2896;SDS011;1458;49.728;9.228;2022-12-11T11:21:48;1.10;;;1.10;;
2896;SDS011;1458;49.728;9.228;2022-12-11T11:24:23;1.10;;;1.10;;
2896;SDS011;1458;49.728;9.228;2022-12-11T11:26:55;1.20;;;1.20;;
2896;SDS011;1458;49.728;9.228;2022-12-11T11:29:26;1.27;;;1.27;;
2896;SDS011;1458;49.728;9.228;2022-12-11T11:31:56;1.30;;;1.30;;
2896;SDS011;1458;49.728;9.228;2022-12-11T11:34:40;1.30;;;1.30;;
2896;SDS011;1458;49.728;9.228;2022-12-11T11:37:15;1.27;;;1.27;;
2896;SDS011;1458;49.728;9.228;2022-12-11T11:39:51;1.23;;;1.23;;
2896;SDS011;1458;49.728;9.228;2022-12-11T11:42:30;1.20;;;1.20;;
2896;SDS011;1458;49.728;9.228;2022-12-11T11:45:11;1.20;;;1.20;;
2896;SDS011;1458;49.728;9.228;2022-12-11T11:47:43;1.30;;;1.30;;
2896;SDS011;1458;49.728;9.228;2022-12-11T11:50:21;1.47;;;1.47;;
2896;SDS011;1458;49.728;9.228;2022-12-11T11:52:55;1.20;;;1.20;;
2896;SDS011;1458;49.728;9.228;2022-12-11T11:55:31;1.30;;;1.30;;
2896;SDS011;1458;49.728;9.228;2022-12-11T11:58:08;1.20;;;1.20;;
2896;SDS011;1458;49.728;9.228;2022-12-11T12:00:44;1.10;;;1.10;;
2896;SDS011;1458;49.728;9.228;2022-12-11T12:03:12;1.30;;;1.30;;
2896;SDS011;1458;49.728;9.228;2022-12-11T12:05:44;1.00;;;1.00;;
2896;SDS011;1458;49.728;9.228;2022-12-11T12:08:21;1.10;;;1.10;;
2896;SDS011;1458;49.728;9.228;2022-12-11T12:11:09;1.10;;;1.10;;
2896;SDS011;1458;49.728;9.228;2022-12-11T12:13:48;1.00;;;1.00;;
2896;SDS011;1458;49.728;9.228;2022-12-11T12:16:31;1.00;;;1.00;;
2896;SDS011;1458;49.728;9.228;2022-12-11T12:19:08;1.00;;;1.00;;
2896;SDS011;1458;49.728;9.228;2022-12-11T12:21:48;1.00;;;1.00;;
2896;SDS011;1458;49.728;9.228;2022-12-11T12:24:20;1.23;;;1.23;;
2896;SDS011;1458;49.728;9.228;2022-12-11T12:26:59;1.00;;;1.00;;
2896;SDS011;1458;49.728;9.228;2022-12-11T12:29:43;0.90;;;0.90;;
2896;SDS011;1458;49.728;9.228;2022-12-11T12:32:22;0.97;;;0.97;;
2896;SDS011;1458;49.728;9.228;2022-12-11T12:35:03;1.10;;;1.10;;
2896;SDS011;1458;49.728;9.228;2022-12-11T12:37:43;1.20;;;1.20;;
2896;SDS011;1458;49.728;9.228;2022-12-11T12:40:22;1.20;;;1.20;;
2896;SDS011;1458;49.728;9.228;2022-12-11T12:42:59;1.30;;;1.30;;
2896;SDS011;1458;49.728;9.228;2022-12-11T12:45:53;1.20;;;1.20;;
2896;SDS011;1458;49.728;9.228;2022-12-11T12:48:35;1.20;;;1.20;;
2896;SDS011;1458;49.728;9.228;2022-12-11T12:51:03;1.20;;;1.20;;
2896;SDS011;1458;49.728;9.228;2022-12-11T12:53:32;1.20;;;1.20;;
2896;SDS011;1458;49.728;9.228;2022-12-11T12:56:02;1.20;;;1.20;;
2896;SDS011;1458;49.728;9.228;2022-12-11T12:58:39;1.30;;;1.30;;
2896;SDS011;1458;49.728;9.228;2022-12-11T13:01:12;1.20;;;1.20;;
2896;SDS011;1458;49.728;9.228;2022-12-11T13:03:52;1.10;;;1.10;;
2896;SDS011;1458;49.728;9.228;2022-12-11T13:06:29;1.20;;;1.20;;
2896;SDS011;1458;49.728;9.228;2022-12-11T13:09:09;1.30;;;1.30;;
2896;SDS011;1458;49.728;9.228;2022-12-11T13:11:42;1.40;;;1.40;;
2896;SDS011;1458;49.728;9.228;2022-12-11T13:14:25;1.40;;;1.40;;
2896;SDS011;1458;49.728;9.228;2022-12-11T13:20:12;1.40;;;1.40;;
2896;SDS011;1458;49.728;9.228;2022-12-11T13:22:51;1.27;;;1.27;;
2896;SDS011;1458;49.728;9.228;2022-12-11T13:25:23;1.23;;;1.23;;
2896;SDS011;1458;49.728;9.228;2022-12-11T13:28:06;1.40;;;1.40;;
2896;SDS011;1458;49.728;9.228;2022-12-11T13:30:55;1.30;;;1.30;;
2896;SDS011;1458;49.728;9.228;2022-12-11T13:33:28;1.20;;;1.20;;
2896;SDS011;1458;49.728;9.228;2022-12-11T13:38:57;1.47;;;1.47;;
2896;SDS011;1458;49.728;9.228;2022-12-11T13:41:29;1.30;;;1.30;;
2896;SDS011;1458;49.728;9.228;2022-12-11T13:44:03;1.40;;;1.40;;
2896;SDS011;1458;49.728;9.228;2022-12-11T13:46:34;1.37;;;1.37;;
2896;SDS011;1458;49.728;9.228;2022-12-11T13:49:03;1.50;;;1.50;;
2896;SDS011;1458;49.728;9.228;2022-12-11T13:51:34;1.60;;;1.60;;
2896;SDS011;1458;49.728;9.228;2022-12-11T13:54:03;1.50;;;1.50;;
2896;SDS011;1458;49.728;9.228;2022-12-11T13:56:38;1.50;;;1.50;;
2896;SDS011;1458;49.728;9.228;2022-12-11T13:59:17;1.50;;;1.50;;
2896;SDS011;1458;49.728;9.228;2022-12-11T14:01:50;1.40;;;1.40;;
2896;SDS011;1458;49.728;9.228;2022-12-11T14:04:21;1.50;;;1.50;;
2896;SDS011;1458;49.728;9.228;2022-12-11T14:06:53;1.40;;;1.40;;
2896;SDS011;1458;49.728;9.228;2022-12-11T14:09:22;1.43;;;1.43;;
2896;SDS011;1458;49.728;9.228;2022-12-11T14:11:51;1.40;;;1.40;;
2896;SDS011;1458;49.728;9.228;2022-12-11T14:14:22;1.50;;;1.50;;
2896;SDS011;1458;49.728;9.228;2022-12-11T14:16:54;1.30;;;1.30;;
2896;SDS011;1458;49.728;9.228;2022-12-11T14:19:22;1.50;;;1.50;;
2896;SDS011;1458;49.728;9.228;2022-12-11T14:21:55;1.40;;;1.40;;
2896;SDS011;1458;49.728;9.228;2022-12-11T14:24:25;1.37;;;1.37;;
2896;SDS011;1458;49.728;9.228;2022-12-11T14:26:52;1.40;;;1.40;;
2896;SDS011;1458;49.728;9.228;2022-12-11T14:29:22;1.40;;;1.40;;
2896;SDS011;1458;49.728;9.228;2022-12-11T14:31:55;1.40;;;1.40;;
2896;SDS011;1458;49.728;9.228;2022-12-11T14:34:28;1.50;;;1.50;;
2896;SDS011;1458;49.728;9.228;2022-12-11T14:37:02;1.67;;;1.67;;
2896;SDS011;1458;49.728;9.228;2022-12-11T14:39:33;1.50;;;1.50;;
2896;SDS011;1458;49.728;9.228;2022-12-11T14:42:06;1.50;;;1.50;;
2896;SDS011;1458;49.728;9.228;2022-12-11T14:44:42;1.60;;;1.60;;
2896;SDS011;1458;49.728;9.228;2022-12-11T14:47:15;1.40;;;1.40;;
2896;SDS011;1458;49.728;9.228;2022-12-11T14:49:46;1.50;;;1.50;;
2896;SDS011;1458;49.728;9.228;2022-12-11T14:52:20;1.50;;;1.50;;
2896;SDS011;1458;49.728;9.228;2022-12-11T14:54:53;1.60;;;1.60;;
2896;SDS011;1458;49.728;9.228;2022-12-11T14:57:27;1.60;;;1.60;;
2896;SDS011;1458;49.728;9.228;2022-12-11T14:59:57;1.43;;;1.43;;
2896;SDS011;1458;49.728;9.228;2022-12-11T15:02:26;1.40;;;1.40;;
2896;SDS011;1458;49.728;9.228;2022-12-11T15:05:13;1.40;;;1.40;;
2896;SDS011;1458;49.728;9.228;2022-12-11T15:07:52;1.23;;;1.23;;
2896;SDS011;1458;49.728;9.228;2022-12-11T15:10:23;1.10;;;1.10;;
2896;SDS011;1458;49.728;9.228;2022-12-11T15:13:03;1.10;;;1.10;;
2896;SDS011;1458;49.728;9.228;2022-12-11T15:15:33;1.10;;;1.10;;
2896;SDS011;1458;49.728;9.228;2022-12-11T15:18:19;1.00;;;1.00;;
2896;SDS011;1458;49.728;9.228;2022-12-11T15:20:50;1.00;;;1.00;;
2896;SDS011;1458;49.728;9.228;2022-12-11T15:23:22;1.10;;;1.10;;
2896;SDS011;1458;49.728;9.228;2022-12-11T15:25:49;1.00;;;1.00;;
2896;SDS011;1458;49.728;9.228;2022-12-11T15:28:21;1.00;;;1.00;;
2896;SDS011;1458;49.728;9.228;2022-12-11T15:30:54;1.00;;;1.00;;
2896;SDS011;1458;49.728;9.228;2022-12-11T15:33:23;0.90;;;0.90;;
2896;SDS011;1458;49.728;9.228;2022-12-11T15:35:52;1.00;;;1.00;;
2896;SDS011;1458;49.728;9.228;2022-12-11T15:38:28;1.10;;;1.10;;
2896;SDS011;1458;49.728;9.228;2022-12-11T15:40:59;1.17;;;1.17;;
2896;SDS011;1458;49.728;9.228;2022-12-11T15:43:27;1.20;;;1.20;;
2896;SDS011;1458;49.728;9.228;2022-12-11T15:45:57;1.30;;;1.30;;